createdAt,value
2019-01-11T00:02:23.917Z,1.50
2019-01-11T00:04:53.561Z,1.60
2019-01-11T00:07:24.159Z,1.70
2019-01-11T00:09:53.821Z,1.70
2019-01-11T00:12:23.700Z,1.70
2019-01-11T00:14:53.338Z,1.70
2019-01-11T00:17:23.025Z,1.70
2019-01-11T00:19:52.597Z,1.60
2019-01-11T00:22:22.107Z,1.60
2019-01-11T00:24:51.798Z,1.60
2019-01-11T00:27:21.451Z,1.60
2019-01-11T00:29:51.176Z,1.60
2019-01-11T00:32:20.747Z,1.60
2019-01-11T00:34:50.290Z,1.60
2019-01-11T00:37:19.843Z,1.70
2019-01-11T00:39:49.498Z,1.60
2019-01-11T00:42:19.115Z,1.70
2019-01-11T00:44:48.723Z,1.70
2019-01-11T00:47:18.372Z,1.70
2019-01-11T00:49:48.081Z,1.60
2019-01-11T00:52:18.054Z,1.60
2019-01-11T00:54:47.870Z,1.50
2019-01-11T00:57:17.446Z,1.40
2019-01-11T00:59:47.118Z,1.50
2019-01-11T01:02:16.849Z,1.60
2019-01-11T01:04:46.606Z,1.60
2019-01-11T01:07:16.215Z,1.50
2019-01-11T01:09:45.926Z,1.50
2019-01-11T01:12:15.459Z,1.50
2019-01-11T01:14:45.022Z,1.60
2019-01-11T01:17:14.558Z,1.50
2019-01-11T01:19:44.180Z,1.60
2019-01-11T01:22:13.874Z,1.70
2019-01-11T01:24:43.395Z,1.70
2019-01-11T01:27:12.984Z,1.70
2019-01-11T01:29:42.588Z,1.70
2019-01-11T01:32:12.171Z,1.70
2019-01-11T01:34:41.867Z,1.70
2019-01-11T01:37:11.523Z,1.70
2019-01-11T01:39:41.186Z,1.70
2019-01-11T01:42:10.694Z,1.70
2019-01-11T01:44:41.252Z,1.80
2019-01-11T01:47:10.856Z,1.70
2019-01-11T01:49:40.593Z,1.70
2019-01-11T01:52:10.072Z,1.80
2019-01-11T01:54:39.751Z,1.80
2019-01-11T01:57:09.262Z,1.80
2019-01-11T01:59:38.785Z,1.80
2019-01-11T02:02:08.368Z,1.80
2019-01-11T02:04:37.900Z,1.90
2019-01-11T02:07:07.580Z,1.70
2019-01-11T02:09:37.050Z,1.80
2019-01-11T02:12:06.775Z,1.80
2019-01-11T02:14:36.329Z,1.90
2019-01-11T02:17:07.062Z,1.90
2019-01-11T02:19:36.622Z,1.80
2019-01-11T02:22:06.601Z,1.80
2019-01-11T02:24:36.324Z,1.80
2019-01-11T02:27:06.044Z,1.70
2019-01-11T02:29:35.581Z,1.70
2019-01-11T02:32:05.557Z,1.70
2019-01-11T02:34:35.321Z,1.80
2019-01-11T02:37:05.042Z,1.90
2019-01-11T02:39:34.573Z,1.80
2019-01-11T02:42:04.250Z,1.90
2019-01-11T02:44:33.985Z,1.80
2019-01-11T02:47:03.596Z,1.70
2019-01-11T02:49:39.805Z,1.80
2019-01-11T02:52:04.655Z,1.80
2019-01-11T02:54:35.701Z,1.80
2019-01-11T02:57:05.807Z,1.90
2019-01-11T02:59:35.400Z,1.90
2019-01-11T03:02:05.314Z,1.90
2019-01-11T03:04:35.010Z,1.90
2019-01-11T03:07:04.687Z,1.90
2019-01-11T03:09:34.470Z,1.90
2019-01-11T03:12:04.097Z,1.90
2019-01-11T03:14:33.658Z,1.80
2019-01-11T03:17:03.141Z,1.80
2019-01-11T03:19:32.771Z,1.80
2019-01-11T03:22:02.340Z,1.80
2019-01-11T03:24:32.143Z,1.80
2019-01-11T03:27:01.695Z,1.80
2019-01-11T03:29:31.303Z,1.80
2019-01-11T03:32:01.012Z,1.70
2019-01-11T03:34:31.487Z,1.80
2019-01-11T03:37:01.043Z,1.90
2019-01-11T03:39:31.681Z,1.90
2019-01-11T03:42:19.746Z,1.90
2019-01-11T03:44:49.427Z,1.90
2019-01-11T03:47:19.026Z,2.00
2019-01-11T03:49:54.751Z,1.90
2019-01-11T03:52:21.113Z,2.00
2019-01-11T03:54:50.759Z,2.00
2019-01-11T03:57:20.360Z,2.00
2019-01-11T03:59:49.828Z,1.90
2019-01-11T04:02:19.470Z,2.00
2019-01-11T04:04:49.103Z,1.90
2019-01-11T04:07:18.693Z,1.90
2019-01-11T04:09:48.197Z,2.10
2019-01-11T04:12:17.905Z,2.00
2019-01-11T04:14:47.614Z,2.10
2019-01-11T04:17:17.362Z,2.20
2019-01-11T04:19:47.017Z,2.30
2019-01-11T04:22:26.931Z,2.20
2019-01-11T04:25:10.937Z,2.20
2019-01-11T04:27:40.579Z,2.10
2019-01-11T04:30:14.858Z,2.20
2019-01-11T04:32:44.474Z,2.20
2019-01-11T04:35:14.329Z,2.30
2019-01-11T04:37:44.118Z,2.30
2019-01-11T04:40:15.304Z,2.30
2019-01-11T04:42:44.973Z,2.30
2019-01-11T04:45:14.578Z,2.40
2019-01-11T04:47:44.217Z,2.40
2019-01-11T04:50:16.725Z,2.40
2019-01-11T04:52:46.624Z,2.40
2019-01-11T04:55:17.430Z,2.40
2019-01-11T04:57:46.958Z,2.30
2019-01-11T05:00:21.500Z,2.30
2019-01-11T05:02:51.386Z,2.40
2019-01-11T05:05:21.070Z,2.50
2019-01-11T05:07:50.690Z,2.50
2019-01-11T05:10:21.383Z,2.50
2019-01-11T05:12:50.991Z,2.40
2019-01-11T05:15:20.606Z,2.40
2019-01-11T05:17:50.279Z,2.40
2019-01-11T05:20:19.921Z,2.50
2019-01-11T05:22:49.730Z,2.60
2019-01-11T05:25:19.367Z,2.60
2019-01-11T05:27:51.192Z,2.60
2019-01-11T05:30:23.005Z,2.60
2019-01-11T05:32:52.531Z,2.50
2019-01-11T05:35:22.524Z,2.60
2019-01-11T05:38:11.299Z,2.60
2019-01-11T05:40:41.036Z,2.60
2019-01-11T05:43:10.688Z,2.70
2019-01-11T05:45:41.733Z,2.70
2019-01-11T05:48:11.298Z,2.70
2019-01-11T05:50:41.037Z,2.70
2019-01-11T05:53:10.761Z,2.70
2019-01-11T05:55:47.532Z,2.70
2019-01-11T05:58:41.997Z,2.80
2019-01-11T06:01:12.169Z,2.80
2019-01-11T06:03:41.903Z,2.80
2019-01-11T06:06:12.161Z,2.90
2019-01-11T06:08:42.195Z,2.90
2019-01-11T06:11:12.727Z,3.00
2019-01-11T06:13:42.826Z,2.90
2019-01-11T06:16:13.066Z,2.90
2019-01-11T06:18:42.748Z,2.90
2019-01-11T06:21:12.709Z,3.00
2019-01-11T06:23:45.638Z,3.00
2019-01-11T06:26:15.257Z,3.00
2019-01-11T06:28:44.802Z,3.00
2019-01-11T06:31:14.735Z,3.10
2019-01-11T06:33:44.344Z,3.00
2019-01-11T06:36:13.983Z,3.10
2019-01-11T06:38:43.717Z,3.10
2019-01-11T06:41:13.761Z,3.10
2019-01-11T06:43:52.009Z,3.10
2019-01-11T06:46:23.524Z,3.10
2019-01-11T06:48:53.017Z,3.10
2019-01-11T06:51:22.624Z,3.10
2019-01-11T06:53:52.242Z,3.20
2019-01-11T06:56:22.047Z,3.20
2019-01-11T06:58:51.784Z,3.20
2019-01-11T07:01:21.539Z,3.50
2019-01-11T07:03:51.454Z,3.70
2019-01-11T07:06:20.961Z,3.90
2019-01-11T07:08:50.608Z,4.00
2019-01-11T07:11:20.381Z,4.10
2019-01-11T07:13:50.287Z,4.30
2019-01-11T07:16:20.824Z,4.10
2019-01-11T07:18:50.395Z,4.20
2019-01-11T07:21:20.347Z,5.20
2019-01-11T07:23:49.914Z,4.60
2019-01-11T07:26:20.584Z,5.70
2019-01-11T07:28:50.573Z,5.70
2019-01-11T07:31:23.933Z,5.60
2019-01-11T07:33:54.059Z,5.10
2019-01-11T07:36:31.662Z,4.60
2019-01-11T07:39:02.281Z,4.20
2019-01-11T07:41:32.512Z,4.00
2019-01-11T07:44:02.484Z,3.90
2019-01-11T07:46:32.341Z,3.80
2019-01-11T07:49:02.286Z,3.70
2019-01-11T07:51:31.914Z,3.60
2019-01-11T07:54:02.205Z,3.60
2019-01-11T07:56:31.783Z,3.60
2019-01-11T07:59:01.453Z,3.50
2019-01-11T08:01:35.622Z,3.50
2019-01-11T08:04:06.210Z,3.50
2019-01-11T08:06:35.745Z,3.50
2019-01-11T08:09:08.197Z,3.50
2019-01-11T08:11:37.901Z,3.50
2019-01-11T08:14:08.509Z,3.60
2019-01-11T08:16:38.137Z,3.60
2019-01-11T08:19:07.838Z,3.60
2019-01-11T08:21:37.955Z,3.70
2019-01-11T08:24:07.823Z,3.70
2019-01-11T08:26:37.430Z,3.70
2019-01-11T08:29:07.327Z,3.80
2019-01-11T08:31:36.864Z,3.90
2019-01-11T08:34:06.783Z,3.80
2019-01-11T08:36:36.643Z,3.80
2019-01-11T08:39:09.030Z,3.90
2019-01-11T08:41:38.806Z,3.90
2019-01-11T08:44:08.515Z,3.90
2019-01-11T08:46:38.114Z,3.90
2019-01-11T08:49:07.775Z,3.90
2019-01-11T08:51:37.516Z,4.00
2019-01-11T08:54:07.177Z,4.00
2019-01-11T08:56:36.797Z,4.00
2019-01-11T08:59:06.841Z,4.00
2019-01-11T09:01:36.491Z,4.10
2019-01-11T09:04:06.196Z,4.10
2019-01-11T09:06:35.931Z,4.10
2019-01-11T09:09:08.788Z,4.20
2019-01-11T09:11:38.309Z,4.20
2019-01-11T09:14:09.667Z,4.20
2019-01-11T09:16:39.362Z,4.30
2019-01-11T09:19:10.083Z,4.30
2019-01-11T09:21:41.697Z,4.30
2019-01-11T09:24:10.903Z,4.30
2019-01-11T09:26:40.494Z,4.30
2019-01-11T09:29:10.382Z,4.40
2019-01-11T09:31:40.050Z,4.40
2019-01-11T09:34:13.799Z,4.40
2019-01-11T09:36:43.963Z,4.50
2019-01-11T09:39:13.562Z,4.50
2019-01-11T09:41:43.296Z,4.50
2019-01-11T09:44:12.991Z,4.60
2019-01-11T09:46:42.643Z,4.70
2019-01-11T09:49:12.575Z,4.80
2019-01-11T09:51:42.676Z,4.90
2019-01-11T09:54:12.637Z,5.00
2019-01-11T09:56:42.303Z,5.20
2019-01-11T09:59:12.045Z,5.10
2019-01-11T10:01:43.375Z,5.10
2019-01-11T10:04:16.875Z,5.10
2019-01-11T10:07:00.188Z,5.10
2019-01-11T10:09:31.138Z,5.20
2019-01-11T10:12:01.753Z,5.20
2019-01-11T10:14:31.394Z,5.10
2019-01-11T10:17:01.184Z,5.20
2019-01-11T10:19:30.853Z,5.30
2019-01-11T10:22:00.618Z,5.30
2019-01-11T10:24:30.453Z,5.40
2019-01-11T10:27:00.116Z,5.50
2019-01-11T10:29:29.755Z,5.50
2019-01-11T10:31:59.390Z,5.60
2019-01-11T10:34:29.275Z,5.60
2019-01-11T10:36:58.854Z,5.80
2019-01-11T10:39:28.521Z,5.80
2019-01-11T10:41:58.233Z,5.80
2019-01-11T10:44:27.720Z,5.80
2019-01-11T10:46:57.534Z,5.90
2019-01-11T10:49:27.319Z,5.80
2019-01-11T10:51:56.910Z,5.90
2019-01-11T10:54:40.687Z,5.90
2019-01-11T10:57:10.350Z,5.90
2019-01-11T10:59:40.089Z,5.90
2019-01-11T11:02:09.520Z,6.00
2019-01-11T11:04:39.221Z,6.10
2019-01-11T11:07:09.119Z,6.20
2019-01-11T11:09:38.800Z,6.20
2019-01-11T11:12:08.949Z,6.30
2019-01-11T11:14:38.583Z,6.40
2019-01-11T11:17:08.207Z,6.30
2019-01-11T11:19:37.824Z,6.40
2019-01-11T11:22:07.476Z,6.40
2019-01-11T11:24:37.392Z,6.50
2019-01-11T11:27:07.343Z,6.60
2019-01-11T11:29:36.956Z,6.70
2019-01-11T11:32:06.886Z,6.60
2019-01-11T11:34:38.730Z,6.70
2019-01-11T11:37:09.320Z,6.70
2019-01-11T11:39:38.962Z,6.60
2019-01-11T11:42:08.661Z,6.70
2019-01-11T11:44:38.338Z,6.80
2019-01-11T11:47:07.928Z,6.80
2019-01-11T11:49:37.552Z,6.80
2019-01-11T11:52:07.240Z,6.80
2019-01-11T11:54:36.921Z,6.90
2019-01-11T11:57:06.392Z,6.90
2019-01-11T11:59:54.880Z,7.00
2019-01-11T12:02:24.452Z,6.90
2019-01-11T12:04:54.471Z,7.10
2019-01-11T12:07:24.092Z,7.10
2019-01-11T12:09:53.893Z,7.00
2019-01-11T12:12:23.903Z,7.00
2019-01-11T12:14:53.606Z,6.90
2019-01-11T12:17:23.353Z,7.00
2019-01-11T12:19:57.012Z,7.00
2019-01-11T12:22:24.272Z,7.00
2019-01-11T12:24:53.998Z,7.00
2019-01-11T12:27:24.051Z,7.00
2019-01-11T12:29:53.730Z,7.00
2019-01-11T12:32:23.593Z,7.00
2019-01-11T12:34:53.284Z,7.00
2019-01-11T12:37:25.659Z,7.00
2019-01-11T12:39:55.346Z,7.00
2019-01-11T12:42:25.568Z,7.10
2019-01-11T12:44:55.264Z,7.10
2019-01-11T12:47:25.341Z,7.20
2019-01-11T12:49:55.403Z,7.20
2019-01-11T12:52:25.337Z,7.30
2019-01-11T12:54:56.293Z,7.40
2019-01-11T12:57:26.280Z,7.40
2019-01-11T12:59:56.100Z,7.30
2019-01-11T13:02:28.243Z,7.40
2019-01-11T13:04:58.299Z,7.50
2019-01-11T13:07:55.490Z,7.50
2019-01-11T13:10:44.594Z,7.60
2019-01-11T13:16:09.270Z,7.60
2019-01-11T13:18:53.828Z,7.70
2019-01-11T13:21:27.475Z,7.70
2019-01-11T13:23:57.400Z,7.70
2019-01-11T13:26:35.039Z,7.80
2019-01-11T13:29:04.910Z,7.80
2019-01-11T13:31:34.647Z,7.70
2019-01-11T13:34:04.810Z,7.80
2019-01-11T13:36:35.550Z,7.80
2019-01-11T13:39:10.064Z,7.70
2019-01-11T13:41:39.917Z,7.80
2019-01-11T13:44:09.436Z,7.80
2019-01-11T13:46:39.063Z,7.70
2019-01-11T13:49:12.286Z,7.70
2019-01-11T13:51:43.109Z,7.80
2019-01-11T13:54:12.807Z,7.90
2019-01-11T13:56:43.662Z,7.90
2019-01-11T13:59:13.197Z,7.80
2019-01-11T14:01:43.009Z,7.90
2019-01-11T14:04:12.709Z,7.90
2019-01-11T14:06:42.375Z,7.90
2019-01-11T14:09:12.058Z,7.90
2019-01-11T14:11:42.323Z,7.90
2019-01-11T14:14:16.863Z,7.90
2019-01-11T14:16:49.683Z,7.90
2019-01-11T14:19:19.527Z,8.00
2019-01-11T14:21:49.240Z,8.00
2019-01-11T14:24:18.899Z,8.00
2019-01-11T14:26:48.397Z,7.90
2019-01-11T14:29:17.975Z,7.90
2019-01-11T14:31:47.892Z,7.90
2019-01-11T14:34:17.518Z,7.90
2019-01-11T14:37:06.523Z,7.90
2019-01-11T14:39:36.205Z,7.80
2019-01-11T14:42:05.808Z,7.70
2019-01-11T14:44:35.793Z,7.70
2019-01-11T14:47:05.496Z,7.80
2019-01-11T14:49:35.429Z,7.80
2019-01-11T14:52:05.315Z,7.80
2019-01-11T14:54:35.184Z,7.70
2019-01-11T14:57:04.891Z,7.70
2019-01-11T14:59:34.942Z,7.70
2019-01-11T15:02:05.240Z,7.70
2019-01-11T15:04:34.982Z,7.60
2019-01-11T15:07:04.958Z,7.60
2019-01-11T15:09:34.723Z,7.60
2019-01-11T15:12:04.639Z,7.50
2019-01-11T15:14:34.483Z,7.50
2019-01-11T15:17:04.144Z,7.50
2019-01-11T15:19:33.789Z,7.50
2019-01-11T15:22:03.451Z,7.60
2019-01-11T15:24:34.138Z,7.60
2019-01-11T15:27:03.736Z,7.60
2019-01-11T15:29:33.560Z,7.60
2019-01-11T15:32:03.197Z,7.70
2019-01-11T15:34:32.884Z,7.60
2019-01-11T15:37:02.508Z,7.60
2019-01-11T15:39:32.036Z,7.70
2019-01-11T15:42:01.933Z,7.60
2019-01-11T15:44:31.472Z,7.60
2019-01-11T15:47:00.986Z,7.60
2019-01-11T15:49:33.756Z,7.60
2019-01-11T15:52:23.892Z,7.60
2019-01-11T15:54:53.477Z,7.70
2019-01-11T15:57:44.569Z,7.70
2019-01-11T16:00:42.202Z,7.60
2019-01-11T16:03:14.570Z,7.60
2019-01-11T16:05:44.468Z,7.60
2019-01-11T16:08:33.276Z,7.60
2019-01-11T16:11:30.642Z,7.60
2019-01-11T16:14:43.572Z,7.60
2019-01-11T16:17:15.151Z,7.60
2019-01-11T16:19:44.960Z,7.60
2019-01-11T16:22:25.979Z,7.60
2019-01-11T16:24:55.764Z,7.60
2019-01-11T16:27:25.222Z,7.60
2019-01-11T16:33:03.258Z,7.60
2019-01-11T16:35:33.055Z,7.50
2019-01-11T16:38:02.928Z,7.50
2019-01-11T16:40:32.824Z,7.40
2019-01-11T16:43:03.169Z,7.40
2019-01-11T16:45:32.840Z,7.40
2019-01-11T16:48:02.513Z,7.40
2019-01-11T16:50:32.200Z,7.40
2019-01-11T16:53:01.829Z,7.40
2019-01-11T16:55:32.676Z,7.40
2019-01-11T16:58:02.448Z,7.40
2019-01-11T17:00:32.002Z,7.30
2019-01-11T17:03:01.807Z,7.30
2019-01-11T17:05:31.474Z,7.30
2019-01-11T17:08:01.192Z,7.30
2019-01-11T17:10:32.291Z,7.30
2019-01-11T17:14:18.039Z,7.30
2019-01-11T17:16:52.303Z,7.40
2019-01-11T17:19:21.980Z,7.40
2019-01-11T17:21:51.949Z,7.40
2019-01-11T17:24:39.603Z,7.40
2019-01-11T17:27:09.278Z,7.30
2019-01-11T17:29:38.958Z,7.30
2019-01-11T17:32:18.309Z,7.30
2019-01-11T17:34:47.981Z,7.30
2019-01-11T17:37:18.146Z,7.30
2019-01-11T17:39:49.748Z,7.30
2019-01-11T17:42:19.372Z,7.30
2019-01-11T17:44:49.145Z,7.30
2019-01-11T17:47:18.932Z,7.30
2019-01-11T17:49:49.517Z,7.20
2019-01-11T17:52:19.098Z,7.20
2019-01-11T17:55:10.986Z,7.10
2019-01-11T17:57:40.730Z,7.10
2019-01-11T18:00:13.552Z,7.20
2019-01-11T18:02:43.350Z,7.10
2019-01-11T18:05:14.053Z,7.10
2019-01-11T18:07:43.780Z,7.10
2019-01-11T18:10:14.072Z,7.10
2019-01-11T18:12:43.813Z,7.10
2019-01-11T18:15:19.281Z,7.00
2019-01-11T18:17:50.562Z,7.10
2019-01-11T18:20:25.840Z,7.10
2019-01-11T18:22:55.931Z,7.10
2019-01-11T18:25:25.524Z,7.20
2019-01-11T18:27:55.266Z,7.20
2019-01-11T18:30:25.532Z,7.10
2019-01-11T18:32:55.193Z,7.10
2019-01-11T18:35:27.424Z,7.10
2019-01-11T18:38:03.534Z,7.10
2019-01-11T18:40:33.359Z,7.20
2019-01-11T18:43:08.072Z,7.10
2019-01-11T18:45:41.833Z,7.10
2019-01-11T18:48:11.762Z,7.20
2019-01-11T18:50:45.204Z,7.20
2019-01-11T18:53:14.799Z,7.10
2019-01-11T18:55:44.401Z,7.10
2019-01-11T18:58:13.952Z,7.00
2019-01-11T19:00:44.472Z,6.90
2019-01-11T19:03:14.135Z,6.90
2019-01-11T19:05:43.629Z,6.90
2019-01-11T19:08:13.472Z,6.90
2019-01-11T19:10:42.992Z,6.90
2019-01-11T19:13:12.570Z,6.80
2019-01-11T19:15:42.246Z,6.80
2019-01-11T19:18:11.928Z,6.80
2019-01-11T19:20:41.464Z,6.80
2019-01-11T19:23:20.156Z,6.80
2019-01-11T19:25:45.467Z,6.80
2019-01-11T19:28:15.177Z,6.70
2019-01-11T19:30:44.674Z,6.70
2019-01-11T19:33:14.466Z,6.80
2019-01-11T19:35:44.466Z,6.80
2019-01-11T19:38:14.048Z,6.80
2019-01-11T19:40:43.572Z,6.80
2019-01-11T19:43:13.091Z,6.90
2019-01-11T19:45:43.426Z,6.90
2019-01-11T19:48:13.258Z,7.00
2019-01-11T19:50:42.927Z,7.00
2019-01-11T19:53:13.193Z,7.00
2019-01-11T19:55:42.807Z,7.00
2019-01-11T19:58:12.411Z,7.00
2019-01-11T20:00:41.997Z,6.90
2019-01-11T20:03:13.772Z,6.90
2019-01-11T20:05:43.538Z,6.90
2019-01-11T20:08:13.682Z,6.90
2019-01-11T20:10:46.739Z,6.90
2019-01-11T20:13:17.738Z,6.90
2019-01-11T20:15:48.326Z,6.90
2019-01-11T20:18:18.192Z,7.00
2019-01-11T20:20:47.840Z,7.00
2019-01-11T20:23:17.630Z,6.90
2019-01-11T20:25:47.408Z,6.90
2019-01-11T20:28:17.395Z,7.00
2019-01-11T20:30:47.484Z,7.00
2019-01-11T20:33:17.053Z,7.00
2019-01-11T20:35:46.862Z,7.00
2019-01-11T20:38:17.270Z,7.10
2019-01-11T20:40:47.044Z,7.10
2019-01-11T20:43:16.853Z,7.10
2019-01-11T20:45:46.561Z,7.10
2019-01-11T20:48:16.432Z,7.10
2019-01-11T20:50:46.050Z,7.10
2019-01-11T20:53:15.869Z,7.10
2019-01-11T20:55:45.624Z,7.10
2019-01-11T20:58:15.873Z,7.00
2019-01-11T21:00:45.512Z,7.00
2019-01-11T21:03:20.620Z,7.00
2019-01-11T21:05:50.424Z,7.00
2019-01-11T21:08:20.058Z,7.00
2019-01-11T21:10:50.061Z,7.00
2019-01-11T21:13:20.054Z,7.00
2019-01-11T21:15:59.607Z,7.00
2019-01-11T21:18:29.189Z,7.00
2019-01-11T21:20:59.306Z,6.90
2019-01-11T21:23:33.445Z,6.90
2019-01-11T21:26:03.073Z,6.90
2019-01-11T21:28:33.306Z,6.90
2019-01-11T21:31:04.105Z,7.00
2019-01-11T21:33:52.830Z,7.00
2019-01-11T21:36:27.971Z,6.90
2019-01-11T21:38:57.915Z,6.90
2019-01-11T21:41:27.774Z,6.90
2019-01-11T21:43:57.709Z,6.90
2019-01-11T21:46:27.530Z,6.90
2019-01-11T21:48:57.743Z,6.90
2019-01-11T21:51:27.488Z,6.90
2019-01-11T21:53:57.463Z,6.80
2019-01-11T21:56:27.894Z,6.80
2019-01-11T21:58:58.265Z,6.90
2019-01-11T22:01:28.410Z,6.80
2019-01-11T22:03:58.597Z,6.80
2019-01-11T22:06:28.628Z,6.80
2019-01-11T22:08:58.498Z,6.80
2019-01-11T22:11:28.015Z,6.80
2019-01-11T22:14:09.255Z,6.70
2019-01-11T22:16:38.848Z,6.70
2019-01-11T22:19:13.651Z,6.80
2019-01-11T22:21:43.420Z,6.80
2019-01-11T22:24:13.003Z,6.80
2019-01-11T22:26:42.812Z,6.80
2019-01-11T22:29:12.421Z,6.70
2019-01-11T22:31:42.396Z,6.70
2019-01-11T22:34:12.209Z,6.70
2019-01-11T22:36:41.857Z,6.70
2019-01-11T22:39:17.047Z,6.70
2019-01-11T22:41:47.639Z,6.70
2019-01-11T22:44:17.202Z,6.70
2019-01-11T22:46:46.779Z,6.60
2019-01-11T22:49:16.340Z,6.60
2019-01-11T22:51:45.879Z,6.70
2019-01-11T22:54:15.482Z,6.60
2019-01-11T22:56:45.199Z,6.60
2019-01-11T22:59:14.809Z,6.60
2019-01-11T23:02:11.973Z,6.50
2019-01-11T23:04:42.641Z,6.60
2019-01-11T23:07:42.430Z,6.60
2019-01-11T23:10:55.742Z,6.60
2019-01-11T23:13:25.350Z,6.60
2019-01-11T23:16:02.059Z,6.60
2019-01-11T23:18:32.998Z,6.60
2019-01-11T23:21:07.867Z,6.60
2019-01-11T23:23:37.537Z,6.60
2019-01-11T23:26:07.366Z,6.50
2019-01-11T23:28:37.300Z,6.50
2019-01-11T23:31:07.055Z,6.60
2019-01-11T23:33:36.631Z,6.60
2019-01-11T23:36:06.385Z,6.60
2019-01-11T23:38:36.173Z,6.70
2019-01-11T23:41:09.721Z,6.70
2019-01-11T23:43:39.454Z,6.60
2019-01-11T23:46:09.657Z,6.60
2019-01-11T23:48:39.516Z,6.60
2019-01-11T23:51:09.396Z,6.60
2019-01-11T23:53:39.386Z,6.50
2019-01-11T23:56:09.317Z,6.60
2019-01-11T23:58:39.510Z,6.60
